createdAt,value
2018-08-13T00:01:15.748Z,2.07
2018-08-13T00:03:43.068Z,2.40
2018-08-13T00:06:10.362Z,1.63
2018-08-13T00:08:37.662Z,2.40
2018-08-13T00:11:05.186Z,1.40
2018-08-13T00:13:32.514Z,1.27
2018-08-13T00:15:59.758Z,1.60
2018-08-13T00:21:17.118Z,1.57
2018-08-13T00:23:44.477Z,2.70
2018-08-13T00:26:11.728Z,2.73
2018-08-13T00:28:39.075Z,1.13
2018-08-13T00:31:06.358Z,1.20
2018-08-13T00:33:33.619Z,2.90
2018-08-13T00:36:00.903Z,1.10
2018-08-13T00:38:28.182Z,1.87
2018-08-13T00:40:55.532Z,1.53
2018-08-13T00:43:22.847Z,2.40
2018-08-13T00:45:50.151Z,2.60
2018-08-13T00:48:17.475Z,0.77
2018-08-13T00:50:44.723Z,2.63
2018-08-13T00:53:12.007Z,2.67
2018-08-13T00:55:39.307Z,0.93
2018-08-13T00:58:06.888Z,2.10
2018-08-13T01:00:34.149Z,1.33
2018-08-13T01:03:01.472Z,2.40
2018-08-13T01:05:28.725Z,1.57
2018-08-13T01:07:55.982Z,1.57
2018-08-13T01:10:23.280Z,1.23
2018-08-13T01:12:51.227Z,1.70
2018-08-13T01:15:19.457Z,2.77
2018-08-13T01:17:47.791Z,1.57
2018-08-13T01:20:16.277Z,2.60
2018-08-13T01:22:43.581Z,1.10
2018-08-13T01:25:12.962Z,1.33
2018-08-13T01:27:40.696Z,3.73
2018-08-13T01:30:09.362Z,1.57
2018-08-13T01:32:36.650Z,1.77
2018-08-13T01:35:04.066Z,1.30
2018-08-13T01:37:31.309Z,1.10
2018-08-13T01:39:58.610Z,3.20
2018-08-13T01:42:25.855Z,1.27
2018-08-13T01:44:53.371Z,2.30
2018-08-13T01:47:20.681Z,1.70
2018-08-13T01:49:47.967Z,1.00
2018-08-13T01:52:15.909Z,0.90
2018-08-13T01:54:43.350Z,0.70
2018-08-13T01:57:10.817Z,1.27
2018-08-13T01:59:38.295Z,1.00
2018-08-13T02:02:05.590Z,1.50
2018-08-13T02:04:32.855Z,1.37
2018-08-13T02:07:00.279Z,3.43
2018-08-13T02:09:31.464Z,1.93
2018-08-13T02:11:58.766Z,3.70
2018-08-13T02:14:26.163Z,3.33
2018-08-13T02:16:53.454Z,1.23
2018-08-13T02:19:20.747Z,1.27
2018-08-13T02:21:48.072Z,2.27
2018-08-13T02:24:15.360Z,4.53
2018-08-13T02:26:42.672Z,1.20
2018-08-13T02:29:09.947Z,1.20
2018-08-13T02:31:37.229Z,3.57
2018-08-13T02:34:04.568Z,1.40
2018-08-13T02:36:31.828Z,3.30
2018-08-13T02:38:59.156Z,2.13
2018-08-13T02:41:26.483Z,1.60
2018-08-13T02:43:53.794Z,1.60
2018-08-13T02:46:21.153Z,2.63
2018-08-13T02:48:48.475Z,1.87
2018-08-13T02:51:15.791Z,1.30
2018-08-13T02:53:43.055Z,1.50
2018-08-13T02:56:10.360Z,1.77
2018-08-13T02:58:37.645Z,3.87
2018-08-13T03:01:05.233Z,4.60
2018-08-13T03:03:32.489Z,2.13
2018-08-13T03:05:59.773Z,1.53
2018-08-13T03:08:27.051Z,1.53
2018-08-13T03:10:54.363Z,5.20
2018-08-13T03:13:21.692Z,1.27
2018-08-13T03:15:48.948Z,2.77
2018-08-13T03:18:17.693Z,1.30
2018-08-13T03:20:46.156Z,1.90
2018-08-13T03:23:15.155Z,2.67
2018-08-13T03:25:42.651Z,2.40
2018-08-13T03:28:09.947Z,2.27
2018-08-13T03:30:37.228Z,1.33
2018-08-13T03:33:04.493Z,1.33
2018-08-13T03:35:31.786Z,1.23
2018-08-13T03:37:59.115Z,3.13
2018-08-13T03:40:26.482Z,1.93
2018-08-13T03:42:53.782Z,1.73
2018-08-13T03:45:21.672Z,6.90
2018-08-13T03:47:49.069Z,1.13
2018-08-13T03:50:16.455Z,2.37
2018-08-13T03:52:43.966Z,2.70
2018-08-13T03:55:11.791Z,2.93
2018-08-13T03:57:39.754Z,0.97
2018-08-13T04:00:11.522Z,1.83
2018-08-13T04:02:39.013Z,1.20
2018-08-13T04:05:07.134Z,1.30
2018-08-13T04:07:35.513Z,2.63
2018-08-13T04:10:03.587Z,1.47
2018-08-13T04:12:31.089Z,3.90
2018-08-13T04:14:58.537Z,1.83
2018-08-13T04:17:26.087Z,2.00
2018-08-13T04:19:54.420Z,4.30
2018-08-13T04:22:21.787Z,3.33
2018-08-13T04:24:49.431Z,4.53
2018-08-13T04:27:16.806Z,2.60
2018-08-13T04:29:45.288Z,2.60
2018-08-13T04:32:16.198Z,3.53
2018-08-13T04:34:43.562Z,2.27
2018-08-13T04:37:11.105Z,5.30
2018-08-13T04:39:38.524Z,0.93
2018-08-13T04:42:05.975Z,1.53
2018-08-13T04:44:33.340Z,1.90
2018-08-13T04:47:00.711Z,2.17
2018-08-13T04:49:28.067Z,3.17
2018-08-13T04:51:56.032Z,2.37
2018-08-13T04:54:23.424Z,1.23
2018-08-13T04:56:51.732Z,2.17
2018-08-13T04:59:19.093Z,1.17
2018-08-13T05:01:46.479Z,4.03
2018-08-13T05:04:13.949Z,2.80
2018-08-13T05:06:41.331Z,3.53
2018-08-13T05:09:10.399Z,3.37
2018-08-13T05:11:39.103Z,2.67
2018-08-13T05:14:06.508Z,2.80
2018-08-13T05:16:34.037Z,3.00
2018-08-13T05:19:01.563Z,1.93
2018-08-13T05:21:29.256Z,2.70
2018-08-13T05:23:56.676Z,4.77
2018-08-13T05:26:24.054Z,1.00
2018-08-13T05:28:51.558Z,5.00
2018-08-13T05:31:18.995Z,2.97
2018-08-13T05:33:46.587Z,0.87
2018-08-13T05:36:14.111Z,1.37
2018-08-13T05:38:41.456Z,2.43
2018-08-13T05:41:08.856Z,1.97
2018-08-13T05:43:36.235Z,1.67
2018-08-13T05:46:03.707Z,2.57
2018-08-13T05:48:30.996Z,13.70
2018-08-13T05:50:58.347Z,8.07
2018-08-13T05:53:25.663Z,5.13
2018-08-13T05:55:53.265Z,7.53
2018-08-13T05:58:21.229Z,7.70
2018-08-13T06:00:48.625Z,11.43
2018-08-13T06:03:16.207Z,11.63
2018-08-13T06:05:43.722Z,5.03
2018-08-13T06:08:11.282Z,6.30
2018-08-13T06:10:38.638Z,4.10
2018-08-13T06:13:06.052Z,3.47
2018-08-13T06:15:33.514Z,4.17
2018-08-13T06:18:00.903Z,4.73
2018-08-13T06:20:28.322Z,11.10
2018-08-13T06:22:56.401Z,6.17
2018-08-13T06:25:23.786Z,12.17
2018-08-13T06:27:52.236Z,7.33
2018-08-13T06:30:20.501Z,7.00
2018-08-13T06:32:47.830Z,4.60
2018-08-13T06:35:15.384Z,6.10
2018-08-13T06:37:43.451Z,3.27
2018-08-13T06:40:11.776Z,5.60
2018-08-13T06:42:39.410Z,9.00
2018-08-13T06:45:07.945Z,28.17
2018-08-13T06:47:35.374Z,24.20
2018-08-13T06:50:03.202Z,13.18
2018-08-13T06:52:30.591Z,21.73
2018-08-13T06:54:57.994Z,35.35
2018-08-13T06:57:25.368Z,33.53
2018-08-13T06:59:53.410Z,22.22
2018-08-13T07:02:20.854Z,30.35
2018-08-13T07:04:48.243Z,24.75
2018-08-13T07:07:15.583Z,17.92
2018-08-13T07:09:43.256Z,22.52
2018-08-13T07:12:11.058Z,15.68
2018-08-13T07:14:38.897Z,8.18
2018-08-13T07:17:06.488Z,21.10
2018-08-13T07:19:34.136Z,5.47
2018-08-13T07:22:02.904Z,9.35
2018-08-13T07:24:30.230Z,11.68
2018-08-13T07:26:57.675Z,13.85
2018-08-13T07:29:25.091Z,12.75
2018-08-13T07:31:52.591Z,19.12
2018-08-13T07:34:20.507Z,12.82
2018-08-13T07:36:47.856Z,9.93
2018-08-13T07:39:17.215Z,7.28
2018-08-13T07:41:44.548Z,8.68
2018-08-13T07:44:12.053Z,5.50
2018-08-13T07:46:39.409Z,8.93
2018-08-13T07:49:06.901Z,5.15
2018-08-13T07:51:34.904Z,8.53
2018-08-13T07:54:02.511Z,5.95
2018-08-13T07:56:29.854Z,2.22
2018-08-13T07:58:57.443Z,7.15
2018-08-13T08:01:24.782Z,8.98
2018-08-13T08:03:52.202Z,8.03
2018-08-13T08:06:19.588Z,5.12
2018-08-13T08:08:47.161Z,5.47
2018-08-13T08:11:14.635Z,6.58
2018-08-13T08:13:41.988Z,4.78
2018-08-13T08:16:09.492Z,15.68
2018-08-13T08:18:36.950Z,12.60
2018-08-13T08:21:04.395Z,9.55
2018-08-13T08:23:31.872Z,6.17
2018-08-13T08:25:59.307Z,6.15
2018-08-13T08:28:26.749Z,6.62
2018-08-13T08:30:54.166Z,4.67
2018-08-13T08:33:21.582Z,4.87
2018-08-13T08:35:49.028Z,4.97
2018-08-13T08:38:16.902Z,12.58
2018-08-13T08:40:44.274Z,1.35
2018-08-13T08:43:11.802Z,2.40
2018-08-13T08:45:39.149Z,2.95
2018-08-13T08:48:07.984Z,1.95
2018-08-13T08:50:35.362Z,1.90
2018-08-13T08:53:03.116Z,3.08
2018-08-13T08:55:30.682Z,3.47
2018-08-13T08:57:58.292Z,1.00
2018-08-13T09:00:26.296Z,1.67
2018-08-13T09:02:54.271Z,2.67
2018-08-13T09:05:21.752Z,3.02
2018-08-13T09:07:49.170Z,1.62
2018-08-13T09:10:16.667Z,3.42
2018-08-13T09:12:44.218Z,1.87
2018-08-13T09:15:13.665Z,15.05
2018-08-13T09:17:52.386Z,5.22
2018-08-13T09:20:31.220Z,9.10
2018-08-13T09:23:10.106Z,9.43
2018-08-13T09:25:49.050Z,13.65
2018-08-13T09:28:27.974Z,3.75
2018-08-13T09:31:06.674Z,9.03
2018-08-13T09:33:45.326Z,1.30
2018-08-13T09:36:13.749Z,3.83
2018-08-13T09:38:41.552Z,10.00
2018-08-13T09:41:09.095Z,3.42
2018-08-13T09:43:36.502Z,6.33
2018-08-13T09:46:04.052Z,7.62
2018-08-13T09:48:31.869Z,4.90
2018-08-13T09:50:59.650Z,3.55
2018-08-13T09:53:27.242Z,3.80
2018-08-13T09:55:54.738Z,7.80
2018-08-13T09:58:22.318Z,3.77
2018-08-13T10:00:55.300Z,3.65
2018-08-13T10:03:22.694Z,4.67
2018-08-13T10:05:59.449Z,1.75
2018-08-13T10:08:26.810Z,3.60
2018-08-13T10:10:54.439Z,5.20
2018-08-13T10:13:21.822Z,2.05
2018-08-13T10:18:24.466Z,6.47
2018-08-13T10:20:52.548Z,3.95
2018-08-13T10:23:19.887Z,4.45
2018-08-13T10:25:47.857Z,1.85
2018-08-13T10:28:15.904Z,2.67
2018-08-13T10:30:43.298Z,7.10
2018-08-13T10:33:10.684Z,1.90
2018-08-13T10:35:38.545Z,1.95
2018-08-13T10:38:05.867Z,2.37
2018-08-13T10:40:34.052Z,7.87
2018-08-13T10:43:04.548Z,1.77
2018-08-13T10:45:32.668Z,1.80
2018-08-13T10:48:00.558Z,3.10
2018-08-13T10:50:29.466Z,1.45
2018-08-13T10:52:56.837Z,3.70
2018-08-13T10:55:25.920Z,2.75
2018-08-13T10:58:08.009Z,4.03
2018-08-13T11:00:36.186Z,2.10
2018-08-13T11:03:04.681Z,2.37
2018-08-13T11:05:32.324Z,2.35
2018-08-13T11:08:00.940Z,3.35
2018-08-13T11:10:28.375Z,2.42
2018-08-13T11:12:55.814Z,7.95
2018-08-13T11:15:23.269Z,2.42
2018-08-13T11:17:50.662Z,4.22
2018-08-13T11:20:18.339Z,3.12
2018-08-13T11:22:46.108Z,2.08
2018-08-13T11:25:14.713Z,6.08
2018-08-13T11:27:43.077Z,4.08
2018-08-13T11:30:12.047Z,3.15
2018-08-13T11:32:39.412Z,2.27
2018-08-13T11:35:09.157Z,4.22
2018-08-13T11:37:36.942Z,3.33
2018-08-13T11:40:13.914Z,3.08
2018-08-13T11:42:41.399Z,2.83
2018-08-13T11:45:09.305Z,5.08
2018-08-13T11:47:38.939Z,3.92
2018-08-13T11:50:10.242Z,2.45
2018-08-13T11:52:38.347Z,8.43
2018-08-13T11:55:06.377Z,4.30
2018-08-13T11:57:34.362Z,7.78
2018-08-13T12:00:01.896Z,5.97
2018-08-13T12:02:29.422Z,3.35
2018-08-13T12:04:56.798Z,2.08
2018-08-13T12:07:25.137Z,3.23
2018-08-13T12:09:53.250Z,11.23
2018-08-13T12:12:20.817Z,3.60
2018-08-13T12:14:48.446Z,6.83
2018-08-13T12:17:16.440Z,2.37
2018-08-13T12:19:44.537Z,7.07
2018-08-13T12:22:12.644Z,4.57
2018-08-13T12:24:40.773Z,3.93
2018-08-13T12:27:08.463Z,3.27
2018-08-13T12:29:35.893Z,6.23
2018-08-13T12:32:03.902Z,4.73
2018-08-13T12:34:31.365Z,2.80
2018-08-13T12:37:04.378Z,2.70
2018-08-13T12:39:32.068Z,2.40
2018-08-13T12:41:59.529Z,5.43
2018-08-13T12:44:26.842Z,3.87
2018-08-13T12:46:54.254Z,5.97
2018-08-13T12:49:21.683Z,3.60
2018-08-13T12:51:49.130Z,5.37
2018-08-13T12:54:17.654Z,6.17
2018-08-13T12:56:45.114Z,4.53
2018-08-13T12:59:26.890Z,4.03
2018-08-13T13:01:55.017Z,5.47
2018-08-13T13:04:22.523Z,3.90
2018-08-13T13:06:49.926Z,4.83
2018-08-13T13:09:17.448Z,2.90
2018-08-13T13:11:45.704Z,3.83
2018-08-13T13:14:13.821Z,2.00
2018-08-13T13:16:41.244Z,2.47
2018-08-13T13:19:08.780Z,3.63
2018-08-13T13:21:36.338Z,2.53
2018-08-13T13:24:04.748Z,2.50
2018-08-13T13:26:32.192Z,1.63
2018-08-13T13:28:59.619Z,2.40
2018-08-13T13:31:27.049Z,3.73
2018-08-13T13:33:55.362Z,2.30
2018-08-13T13:36:24.028Z,1.70
2018-08-13T13:38:52.247Z,3.70
2018-08-13T13:41:19.720Z,1.50
2018-08-13T13:43:47.126Z,6.50
2018-08-13T13:46:23.004Z,4.43
2018-08-13T13:48:50.404Z,2.97
2018-08-13T13:51:17.730Z,1.60
2018-08-13T13:53:45.139Z,2.17
2018-08-13T13:56:12.777Z,1.40
2018-08-13T13:58:40.358Z,1.23
2018-08-13T14:01:09.671Z,1.20
2018-08-13T14:03:37.154Z,1.87
2018-08-13T14:06:04.774Z,2.40
2018-08-13T14:08:32.331Z,1.53
2018-08-13T14:11:00.910Z,2.33
2018-08-13T14:13:29.131Z,1.53
2018-08-13T14:15:56.571Z,1.37
2018-08-13T14:18:24.817Z,1.33
2018-08-13T14:20:54.722Z,1.97
2018-08-13T14:23:24.111Z,1.40
2018-08-13T14:25:51.915Z,1.40
2018-08-13T14:28:19.645Z,1.43
2018-08-13T14:30:47.686Z,1.93
2018-08-13T14:33:15.404Z,2.10
2018-08-13T14:35:43.002Z,1.83
2018-08-13T14:38:10.730Z,1.50
2018-08-13T14:40:38.138Z,1.80
2018-08-13T14:43:05.820Z,1.20
2018-08-13T14:45:35.960Z,1.23
2018-08-13T14:48:05.085Z,1.50
2018-08-13T14:50:32.597Z,2.30
2018-08-13T14:53:02.307Z,1.67
2018-08-13T14:55:30.043Z,1.30
2018-08-13T14:57:57.618Z,1.33
2018-08-13T15:00:38.177Z,1.60
2018-08-13T15:03:09.912Z,2.97
2018-08-13T15:05:42.024Z,1.23
2018-08-13T15:08:09.857Z,1.83
2018-08-13T15:10:37.814Z,1.83
2018-08-13T15:13:05.994Z,2.10
2018-08-13T15:15:33.594Z,4.33
2018-08-13T15:18:02.416Z,2.50
2018-08-13T15:20:32.615Z,1.50
2018-08-13T15:23:02.977Z,2.47
2018-08-13T15:25:31.708Z,2.10
2018-08-13T15:28:00.896Z,1.60
2018-08-13T15:30:29.797Z,1.67
2018-08-13T15:32:57.857Z,1.93
2018-08-13T15:35:29.681Z,3.10
2018-08-13T15:37:59.803Z,1.43
2018-08-13T15:40:27.532Z,1.77
2018-08-13T15:42:58.216Z,1.50
2018-08-13T15:45:39.013Z,1.47
2018-08-13T15:48:06.572Z,1.93
2018-08-13T15:50:34.494Z,3.53
2018-08-13T15:53:02.335Z,1.50
2018-08-13T15:55:30.118Z,2.17
2018-08-13T15:57:59.019Z,2.37
2018-08-13T16:00:27.172Z,1.50
2018-08-13T16:02:56.248Z,1.53
2018-08-13T16:05:23.632Z,1.60
2018-08-13T16:07:53.629Z,1.20
2018-08-13T16:10:21.087Z,3.80
2018-08-13T16:12:48.632Z,4.57
2018-08-13T16:15:17.953Z,1.27
2018-08-13T16:17:45.949Z,1.77
2018-08-13T16:20:18.956Z,2.30
2018-08-13T16:22:50.563Z,3.40
2018-08-13T16:25:19.939Z,6.10
2018-08-13T16:27:47.640Z,1.63
2018-08-13T16:30:22.146Z,2.27
2018-08-13T16:32:50.456Z,2.80
2018-08-13T16:35:18.757Z,1.97
2018-08-13T16:37:46.570Z,2.53
2018-08-13T16:40:14.844Z,2.33
2018-08-13T16:42:43.032Z,1.63
2018-08-13T16:45:14.472Z,2.33
2018-08-13T16:47:42.196Z,1.73
2018-08-13T16:50:23.747Z,3.00
2018-08-13T16:52:52.072Z,1.63
2018-08-13T16:55:19.634Z,1.53
2018-08-13T16:57:47.203Z,2.87
2018-08-13T17:00:17.223Z,3.63
2018-08-13T17:02:46.194Z,1.83
2018-08-13T17:05:14.865Z,1.20
2018-08-13T17:07:43.211Z,2.00
2018-08-13T17:10:16.403Z,1.80
2018-08-13T17:12:43.969Z,2.07
2018-08-13T17:15:12.653Z,1.83
2018-08-13T17:17:40.563Z,2.93
2018-08-13T17:20:10.474Z,3.17
2018-08-13T17:22:38.121Z,2.20
2018-08-13T17:25:08.680Z,2.87
2018-08-13T17:27:36.119Z,2.87
2018-08-13T17:30:05.479Z,1.60
2018-08-13T17:32:33.190Z,1.50
2018-08-13T17:35:00.652Z,1.60
2018-08-13T17:37:28.112Z,1.93
2018-08-13T17:39:55.513Z,1.80
2018-08-13T17:42:22.946Z,1.70
2018-08-13T17:44:50.338Z,2.30
2018-08-13T17:47:17.846Z,1.70
2018-08-13T17:49:45.238Z,2.13
2018-08-13T17:52:15.362Z,1.73
2018-08-13T17:54:42.789Z,2.20
2018-08-13T17:57:11.211Z,1.63
2018-08-13T17:59:39.972Z,1.70
2018-08-13T18:02:08.533Z,2.33
2018-08-13T18:04:37.471Z,3.03
2018-08-13T18:07:05.503Z,2.20
2018-08-13T18:09:33.227Z,2.00
2018-08-13T18:12:00.963Z,2.17
2018-08-13T18:14:28.433Z,1.90
2018-08-13T18:16:55.980Z,2.03
2018-08-13T18:19:23.503Z,2.33
2018-08-13T18:21:52.138Z,1.90
2018-08-13T18:24:20.303Z,3.07
2018-08-13T18:26:48.400Z,2.00
2018-08-13T18:29:17.279Z,2.13
2018-08-13T18:31:44.783Z,2.47
2018-08-13T18:34:12.206Z,2.13
2018-08-13T18:36:40.137Z,3.50
2018-08-13T18:39:08.185Z,1.63
2018-08-13T18:41:35.726Z,2.60
2018-08-13T18:44:03.342Z,2.47
2018-08-13T18:46:30.850Z,4.37
2018-08-13T18:48:59.077Z,3.43
2018-08-13T18:51:26.578Z,1.77
2018-08-13T18:53:54.031Z,1.83
2018-08-13T18:56:21.826Z,2.77
2018-08-13T18:58:49.364Z,1.70
2018-08-13T19:01:17.382Z,1.80
2018-08-13T19:03:44.750Z,3.37
2018-08-13T19:06:12.272Z,1.60
2018-08-13T19:08:40.296Z,1.93
2018-08-13T19:11:08.807Z,1.87
2018-08-13T19:13:36.277Z,1.67
2018-08-13T19:16:03.847Z,4.63
2018-08-13T19:18:31.242Z,2.60
2018-08-13T19:20:58.717Z,1.60
2018-08-13T19:23:26.127Z,2.07
2018-08-13T19:25:53.513Z,4.00
2018-08-13T19:28:20.986Z,1.93
2018-08-13T19:30:48.507Z,1.87
2018-08-13T19:33:17.213Z,1.70
2018-08-13T19:35:44.526Z,2.20
2018-08-13T19:38:11.866Z,5.73
2018-08-13T19:40:39.260Z,1.93
2018-08-13T19:43:06.600Z,1.60
2018-08-13T19:45:33.978Z,3.23
2018-08-13T19:48:01.361Z,4.10
2018-08-13T19:50:28.910Z,3.07
2018-08-13T19:52:56.267Z,1.40
2018-08-13T19:55:24.714Z,2.10
2018-08-13T19:57:52.681Z,2.37
2018-08-13T20:00:24.677Z,1.80
2018-08-13T20:02:52.454Z,1.80
2018-08-13T20:05:22.220Z,4.10
2018-08-13T20:07:50.043Z,3.20
2018-08-13T20:10:17.406Z,2.00
2018-08-13T20:12:45.472Z,2.80
2018-08-13T20:15:13.058Z,2.40
2018-08-13T20:17:41.183Z,3.00
2018-08-13T20:20:12.952Z,4.70
2018-08-13T20:22:40.785Z,2.60
2018-08-13T20:25:09.812Z,6.10
2018-08-13T20:27:37.393Z,2.40
2018-08-13T20:30:05.675Z,3.67
2018-08-13T20:32:33.783Z,2.03
2018-08-13T20:35:01.259Z,2.27
2018-08-13T20:37:28.651Z,1.77
2018-08-13T20:39:57.006Z,2.47
2018-08-13T20:42:24.374Z,2.00
2018-08-13T20:44:51.734Z,1.60
2018-08-13T20:47:19.029Z,1.90
2018-08-13T20:49:46.282Z,2.17
2018-08-13T20:52:13.723Z,2.17
2018-08-13T20:54:40.989Z,1.60
2018-08-13T20:57:08.318Z,2.00
2018-08-13T20:59:35.721Z,1.93
2018-08-13T21:02:03.153Z,3.00
2018-08-13T21:04:30.423Z,5.40
2018-08-13T21:06:57.744Z,2.37
2018-08-13T21:09:25.026Z,2.70
2018-08-13T21:11:52.323Z,2.00
2018-08-13T21:14:19.636Z,1.60
2018-08-13T21:16:46.889Z,2.23
2018-08-13T21:19:14.195Z,1.60
2018-08-13T21:21:41.463Z,3.50
2018-08-13T21:24:08.747Z,3.00
2018-08-13T21:26:36.020Z,2.53
2018-08-13T21:29:03.329Z,3.73
2018-08-13T21:31:30.571Z,1.90
2018-08-13T21:33:57.841Z,2.43
2018-08-13T21:36:25.061Z,5.90
2018-08-13T21:38:52.423Z,1.90
2018-08-13T21:41:19.671Z,2.13
2018-08-13T21:43:46.961Z,1.70
2018-08-13T21:46:14.507Z,1.50
2018-08-13T21:48:41.995Z,2.47
2018-08-13T21:51:09.251Z,0.90
2018-08-13T21:53:36.506Z,1.37
2018-08-13T21:56:03.955Z,1.70
2018-08-13T21:58:31.207Z,0.50
2018-08-13T22:01:04.131Z,0.63
2018-08-13T22:03:31.485Z,1.10
2018-08-13T22:05:58.754Z,1.30
2018-08-13T22:08:28.103Z,0.70
2018-08-13T22:10:55.386Z,1.47
2018-08-13T22:13:22.718Z,0.70
2018-08-13T22:15:50.038Z,0.73
2018-08-13T22:18:17.355Z,1.10
2018-08-13T22:20:44.684Z,1.37
2018-08-13T22:23:12.015Z,3.43
2018-08-13T22:25:42.984Z,1.60
2018-08-13T22:28:11.090Z,1.00
2018-08-13T22:30:38.402Z,2.13
2018-08-13T22:33:06.594Z,1.23
2018-08-13T22:35:33.897Z,1.07
2018-08-13T22:38:01.186Z,1.37
2018-08-13T22:40:28.457Z,1.47
2018-08-13T22:42:55.807Z,0.73
2018-08-13T22:45:23.796Z,2.20
2018-08-13T22:47:51.187Z,1.60
2018-08-13T22:50:18.497Z,1.23
2018-08-13T22:52:45.764Z,1.63
2018-08-13T22:55:14.299Z,1.80
2018-08-13T22:57:41.614Z,0.70
2018-08-13T23:00:11.316Z,1.27
2018-08-13T23:02:39.118Z,1.67
2018-08-13T23:05:08.809Z,1.97
2018-08-13T23:07:36.254Z,1.97
2018-08-13T23:10:04.295Z,1.00
2018-08-13T23:12:31.603Z,1.90
2018-08-13T23:14:58.879Z,1.10
2018-08-13T23:17:26.123Z,0.90
2018-08-13T23:19:53.451Z,1.13
2018-08-13T23:22:36.345Z,0.80
2018-08-13T23:25:04.433Z,0.90
2018-08-13T23:27:31.716Z,1.23
2018-08-13T23:29:58.986Z,2.17
2018-08-13T23:32:26.232Z,1.47
2018-08-13T23:34:53.518Z,0.90
2018-08-13T23:37:20.804Z,2.00
2018-08-13T23:39:48.095Z,1.27
2018-08-13T23:42:15.414Z,1.30
2018-08-13T23:44:42.727Z,1.53
2018-08-13T23:47:13.062Z,1.73
2018-08-13T23:49:40.371Z,1.20
2018-08-13T23:52:07.673Z,1.00
2018-08-13T23:54:34.974Z,1.20
2018-08-13T23:57:02.229Z,1.17
2018-08-13T23:59:29.789Z,2.07
